sensor_id;sensor_type;location;lat;lon;timestamp;temperature;humidity
2993;DHT22;1506;48.932;9.478;2023-06-26T00:01:41;16.90;1.00
2993;DHT22;1506;48.932;9.478;2023-06-26T00:04:09;16.90;28.20
2993;DHT22;1506;48.932;9.478;2023-06-26T00:06:41;16.90;99.90
2993;DHT22;1506;48.932;9.478;2023-06-26T00:09:08;16.80;1.00
2993;DHT22;1506;48.932;9.478;2023-06-26T00:11:36;16.80;1.00
2993;DHT22;1506;48.932;9.478;2023-06-26T00:14:03;16.80;1.00
2993;DHT22;1506;48.932;9.478;2023-06-26T00:16:30;16.80;1.00
2993;DHT22;1506;48.932;9.478;2023-06-26T00:18:57;16.80;99.90
2993;DHT22;1506;48.932;9.478;2023-06-26T00:21:28;16.90;1.00
2993;DHT22;1506;48.932;9.478;2023-06-26T00:23:55;16.90;99.90
2993;DHT22;1506;48.932;9.478;2023-06-26T00:26:22;16.90;99.90
2993;DHT22;1506;48.932;9.478;2023-06-26T00:28:51;16.80;1.00
2993;DHT22;1506;48.932;9.478;2023-06-26T00:31:19;16.80;1.00
2993;DHT22;1506;48.932;9.478;2023-06-26T00:33:46;16.70;1.00
2993;DHT22;1506;48.932;9.478;2023-06-26T00:36:13;16.70;99.90
2993;DHT22;1506;48.932;9.478;2023-06-26T00:38:41;16.70;1.00
2993;DHT22;1506;48.932;9.478;2023-06-26T00:41:08;16.60;1.00
2993;DHT22;1506;48.932;9.478;2023-06-26T00:43:39;16.50;99.90
2993;DHT22;1506;48.932;9.478;2023-06-26T00:46:11;16.40;1.00
2993;DHT22;1506;48.932;9.478;2023-06-26T00:48:42;16.20;99.90
2993;DHT22;1506;48.932;9.478;2023-06-26T00:51:12;16.10;99.90
2993;DHT22;1506;48.932;9.478;2023-06-26T00:53:40;16.10;1.00
2993;DHT22;1506;48.932;9.478;2023-06-26T00:56:07;16.10;1.00
2993;DHT22;1506;48.932;9.478;2023-06-26T00:58:35;16.10;1.00
2993;DHT22;1506;48.932;9.478;2023-06-26T01:01:03;16.10;1.00
2993;DHT22;1506;48.932;9.478;2023-06-26T01:03:32;16.20;1.00
2993;DHT22;1506;48.932;9.478;2023-06-26T01:06:00;16.10;1.00
2993;DHT22;1506;48.932;9.478;2023-06-26T01:08:27;16.10;1.00
2993;DHT22;1506;48.932;9.478;2023-06-26T01:10:55;16.10;95.20
2993;DHT22;1506;48.932;9.478;2023-06-26T01:13:23;16.10;99.90
2993;DHT22;1506;48.932;9.478;2023-06-26T01:15:51;16.00;99.90
2993;DHT22;1506;48.932;9.478;2023-06-26T01:18:19;16.00;99.90
2993;DHT22;1506;48.932;9.478;2023-06-26T01:20:47;15.90;99.90
2993;DHT22;1506;48.932;9.478;2023-06-26T01:23:22;15.90;99.90
2993;DHT22;1506;48.932;9.478;2023-06-26T01:28:43;15.90;99.90
2993;DHT22;1506;48.932;9.478;2023-06-26T01:31:11;15.90;99.90
2993;DHT22;1506;48.932;9.478;2023-06-26T01:33:40;15.80;99.90
2993;DHT22;1506;48.932;9.478;2023-06-26T01:36:08;15.80;99.90
2993;DHT22;1506;48.932;9.478;2023-06-26T01:38:35;15.70;1.00
2993;DHT22;1506;48.932;9.478;2023-06-26T01:41:04;15.70;1.00
2993;DHT22;1506;48.932;9.478;2023-06-26T01:53:12;15.70;99.90
2993;DHT22;1506;48.932;9.478;2023-06-26T01:55:54;15.60;1.00
2993;DHT22;1506;48.932;9.478;2023-06-26T01:58:25;15.50;1.00
2993;DHT22;1506;48.932;9.478;2023-06-26T02:00:53;15.50;1.00
2993;DHT22;1506;48.932;9.478;2023-06-26T02:03:20;15.50;1.00
2993;DHT22;1506;48.932;9.478;2023-06-26T02:05:51;15.50;1.00
2993;DHT22;1506;48.932;9.478;2023-06-26T02:08:18;15.50;1.00
2993;DHT22;1506;48.932;9.478;2023-06-26T02:10:48;15.50;1.00
2993;DHT22;1506;48.932;9.478;2023-06-26T02:13:16;15.50;1.00
2993;DHT22;1506;48.932;9.478;2023-06-26T02:15:43;15.50;1.00
2993;DHT22;1506;48.932;9.478;2023-06-26T02:18:10;15.40;1.00
2993;DHT22;1506;48.932;9.478;2023-06-26T02:20:37;15.40;1.00
2993;DHT22;1506;48.932;9.478;2023-06-26T02:23:04;15.40;1.00
2993;DHT22;1506;48.932;9.478;2023-06-26T02:25:31;15.30;1.00
2993;DHT22;1506;48.932;9.478;2023-06-26T02:27:58;15.30;1.00
2993;DHT22;1506;48.932;9.478;2023-06-26T02:30:25;15.20;1.00
2993;DHT22;1506;48.932;9.478;2023-06-26T02:32:52;15.30;1.00
2993;DHT22;1506;48.932;9.478;2023-06-26T02:35:20;15.20;1.00
2993;DHT22;1506;48.932;9.478;2023-06-26T02:37:47;15.20;1.00
2993;DHT22;1506;48.932;9.478;2023-06-26T02:40:14;15.10;1.00
2993;DHT22;1506;48.932;9.478;2023-06-26T02:42:41;15.10;1.00
2993;DHT22;1506;48.932;9.478;2023-06-26T02:45:09;15.10;1.00
2993;DHT22;1506;48.932;9.478;2023-06-26T02:47:36;15.10;1.00
2993;DHT22;1506;48.932;9.478;2023-06-26T02:50:08;15.10;1.00
2993;DHT22;1506;48.932;9.478;2023-06-26T02:52:55;15.10;1.00
2993;DHT22;1506;48.932;9.478;2023-06-26T02:55:22;15.00;1.00
2993;DHT22;1506;48.932;9.478;2023-06-26T02:57:51;14.90;1.00
2993;DHT22;1506;48.932;9.478;2023-06-26T03:00:19;14.80;1.00
2993;DHT22;1506;48.932;9.478;2023-06-26T03:02:49;14.70;1.00
2993;DHT22;1506;48.932;9.478;2023-06-26T03:05:18;14.70;1.00
2993;DHT22;1506;48.932;9.478;2023-06-26T03:07:45;14.60;1.00
2993;DHT22;1506;48.932;9.478;2023-06-26T03:10:12;14.70;1.00
2993;DHT22;1506;48.932;9.478;2023-06-26T03:12:41;14.70;1.00
2993;DHT22;1506;48.932;9.478;2023-06-26T03:15:10;14.80;1.00
2993;DHT22;1506;48.932;9.478;2023-06-26T03:17:38;14.80;1.00
2993;DHT22;1506;48.932;9.478;2023-06-26T03:20:09;14.80;1.00
2993;DHT22;1506;48.932;9.478;2023-06-26T03:22:45;14.80;1.00
2993;DHT22;1506;48.932;9.478;2023-06-26T03:25:13;14.80;1.00
2993;DHT22;1506;48.932;9.478;2023-06-26T03:27:40;14.70;1.00
2993;DHT22;1506;48.932;9.478;2023-06-26T03:30:08;14.70;1.00
2993;DHT22;1506;48.932;9.478;2023-06-26T03:32:38;14.70;1.00
2993;DHT22;1506;48.932;9.478;2023-06-26T03:35:06;14.70;1.00
2993;DHT22;1506;48.932;9.478;2023-06-26T03:37:33;14.70;1.00
2993;DHT22;1506;48.932;9.478;2023-06-26T03:40:00;14.70;1.00
2993;DHT22;1506;48.932;9.478;2023-06-26T03:42:28;14.80;1.00
2993;DHT22;1506;48.932;9.478;2023-06-26T03:44:55;14.80;1.00
2993;DHT22;1506;48.932;9.478;2023-06-26T03:47:22;14.90;1.00
2993;DHT22;1506;48.932;9.478;2023-06-26T03:49:49;14.90;1.00
2993;DHT22;1506;48.932;9.478;2023-06-26T03:52:16;15.00;1.00
2993;DHT22;1506;48.932;9.478;2023-06-26T03:54:44;15.00;1.00
2993;DHT22;1506;48.932;9.478;2023-06-26T03:57:11;15.00;1.00
2993;DHT22;1506;48.932;9.478;2023-06-26T03:59:38;15.00;1.00
2993;DHT22;1506;48.932;9.478;2023-06-26T04:02:06;15.00;1.00
2993;DHT22;1506;48.932;9.478;2023-06-26T04:04:33;15.10;1.00
2993;DHT22;1506;48.932;9.478;2023-06-26T04:07:00;15.10;1.00
2993;DHT22;1506;48.932;9.478;2023-06-26T04:09:27;15.10;1.00
2993;DHT22;1506;48.932;9.478;2023-06-26T04:11:54;15.10;1.00
2993;DHT22;1506;48.932;9.478;2023-06-26T04:14:21;15.20;1.00
2993;DHT22;1506;48.932;9.478;2023-06-26T04:16:48;15.30;1.00
2993;DHT22;1506;48.932;9.478;2023-06-26T04:19:15;15.30;1.00
2993;DHT22;1506;48.932;9.478;2023-06-26T04:21:42;15.40;1.00
2993;DHT22;1506;48.932;9.478;2023-06-26T04:24:09;15.50;1.00
2993;DHT22;1506;48.932;9.478;2023-06-26T04:26:40;15.50;1.00
2993;DHT22;1506;48.932;9.478;2023-06-26T04:29:12;15.50;1.00
2993;DHT22;1506;48.932;9.478;2023-06-26T04:31:39;15.60;1.00
2993;DHT22;1506;48.932;9.478;2023-06-26T04:34:06;15.60;1.00
2993;DHT22;1506;48.932;9.478;2023-06-26T04:36:33;15.70;1.00
2993;DHT22;1506;48.932;9.478;2023-06-26T04:39:06;15.70;1.00
2993;DHT22;1506;48.932;9.478;2023-06-26T04:41:33;15.80;1.00
2993;DHT22;1506;48.932;9.478;2023-06-26T04:44:00;15.90;1.00
2993;DHT22;1506;48.932;9.478;2023-06-26T04:46:27;16.00;99.90
2993;DHT22;1506;48.932;9.478;2023-06-26T04:48:54;16.10;99.90
2993;DHT22;1506;48.932;9.478;2023-06-26T04:51:25;16.10;99.90
2993;DHT22;1506;48.932;9.478;2023-06-26T04:53:53;16.10;78.70
2993;DHT22;1506;48.932;9.478;2023-06-26T04:56:20;16.20;99.90
2993;DHT22;1506;48.932;9.478;2023-06-26T04:58:48;16.30;1.00
2993;DHT22;1506;48.932;9.478;2023-06-26T05:01:15;16.40;1.00
2993;DHT22;1506;48.932;9.478;2023-06-26T05:03:42;16.60;1.00
2993;DHT22;1506;48.932;9.478;2023-06-26T05:06:09;16.80;58.80
2993;DHT22;1506;48.932;9.478;2023-06-26T05:08:36;17.00;8.30
2993;DHT22;1506;48.932;9.478;2023-06-26T05:11:04;17.50;99.90
2993;DHT22;1506;48.932;9.478;2023-06-26T05:13:31;19.10;1.00
2993;DHT22;1506;48.932;9.478;2023-06-26T05:15:58;21.00;59.80
2993;DHT22;1506;48.932;9.478;2023-06-26T05:18:25;22.70;1.00
2993;DHT22;1506;48.932;9.478;2023-06-26T05:20:52;23.70;43.70
2993;DHT22;1506;48.932;9.478;2023-06-26T05:23:19;24.90;26.30
2993;DHT22;1506;48.932;9.478;2023-06-26T05:25:48;25.90;1.00
2993;DHT22;1506;48.932;9.478;2023-06-26T05:28:16;27.00;1.00
2993;DHT22;1506;48.932;9.478;2023-06-26T05:30:44;27.40;99.90
2993;DHT22;1506;48.932;9.478;2023-06-26T05:33:11;28.10;99.90
2993;DHT22;1506;48.932;9.478;2023-06-26T05:35:39;28.80;99.90
2993;DHT22;1506;48.932;9.478;2023-06-26T05:38:08;29.50;99.90
2993;DHT22;1506;48.932;9.478;2023-06-26T05:40:35;30.20;99.90
2993;DHT22;1506;48.932;9.478;2023-06-26T05:43:03;30.80;99.90
2993;DHT22;1506;48.932;9.478;2023-06-26T05:47:58;31.10;99.90
2993;DHT22;1506;48.932;9.478;2023-06-26T05:50:26;32.40;99.90
2993;DHT22;1506;48.932;9.478;2023-06-26T05:56:40;32.40;99.90
2993;DHT22;1506;48.932;9.478;2023-06-26T06:04:05;33.10;99.90
2993;DHT22;1506;48.932;9.478;2023-06-26T06:06:32;33.90;99.90
2993;DHT22;1506;48.932;9.478;2023-06-26T06:08:59;34.20;99.90
2993;DHT22;1506;48.932;9.478;2023-06-26T06:11:26;34.40;99.90
2993;DHT22;1506;48.932;9.478;2023-06-26T06:13:53;34.10;99.90
2993;DHT22;1506;48.932;9.478;2023-06-26T06:16:20;34.30;99.90
2993;DHT22;1506;48.932;9.478;2023-06-26T06:18:47;34.70;99.90
2993;DHT22;1506;48.932;9.478;2023-06-26T06:21:14;35.10;99.90
2993;DHT22;1506;48.932;9.478;2023-06-26T06:23:41;35.20;99.90
2993;DHT22;1506;48.932;9.478;2023-06-26T06:26:09;34.10;99.90
2993;DHT22;1506;48.932;9.478;2023-06-26T06:28:36;33.10;99.90
2993;DHT22;1506;48.932;9.478;2023-06-26T06:31:03;32.20;99.90
2993;DHT22;1506;48.932;9.478;2023-06-26T06:33:30;32.60;99.90
2993;DHT22;1506;48.932;9.478;2023-06-26T06:35:57;33.00;99.90
2993;DHT22;1506;48.932;9.478;2023-06-26T06:38:24;33.20;99.90
2993;DHT22;1506;48.932;9.478;2023-06-26T06:40:51;33.20;99.90
2993;DHT22;1506;48.932;9.478;2023-06-26T06:43:18;32.90;99.90
2993;DHT22;1506;48.932;9.478;2023-06-26T06:45:45;32.90;99.90
2993;DHT22;1506;48.932;9.478;2023-06-26T06:48:12;32.60;99.90
2993;DHT22;1506;48.932;9.478;2023-06-26T06:50:39;32.60;99.90
2993;DHT22;1506;48.932;9.478;2023-06-26T06:53:07;32.90;99.90
2993;DHT22;1506;48.932;9.478;2023-06-26T06:55:34;32.60;99.90
2993;DHT22;1506;48.932;9.478;2023-06-26T06:58:01;31.90;99.90
2993;DHT22;1506;48.932;9.478;2023-06-26T07:00:31;31.80;99.90
2993;DHT22;1506;48.932;9.478;2023-06-26T07:02:58;31.30;99.90
2993;DHT22;1506;48.932;9.478;2023-06-26T07:05:27;31.30;99.90
2993;DHT22;1506;48.932;9.478;2023-06-26T07:07:54;31.30;99.90
2993;DHT22;1506;48.932;9.478;2023-06-26T07:10:21;31.80;99.90
2993;DHT22;1506;48.932;9.478;2023-06-26T07:12:48;31.60;99.90
2993;DHT22;1506;48.932;9.478;2023-06-26T07:15:16;31.60;99.90
2993;DHT22;1506;48.932;9.478;2023-06-26T07:17:43;31.50;99.90
2993;DHT22;1506;48.932;9.478;2023-06-26T07:20:10;31.60;99.90
2993;DHT22;1506;48.932;9.478;2023-06-26T07:22:42;31.90;99.90
2993;DHT22;1506;48.932;9.478;2023-06-26T07:25:11;31.90;99.90
2993;DHT22;1506;48.932;9.478;2023-06-26T07:27:39;32.30;99.90
2993;DHT22;1506;48.932;9.478;2023-06-26T07:30:08;32.60;99.90
2993;DHT22;1506;48.932;9.478;2023-06-26T07:32:36;32.60;99.90
2993;DHT22;1506;48.932;9.478;2023-06-26T07:35:04;32.70;99.90
2993;DHT22;1506;48.932;9.478;2023-06-26T07:37:31;32.10;99.90
2993;DHT22;1506;48.932;9.478;2023-06-26T07:39:58;31.80;99.90
2993;DHT22;1506;48.932;9.478;2023-06-26T07:42:25;32.10;99.90
2993;DHT22;1506;48.932;9.478;2023-06-26T07:44:52;32.00;99.90
2993;DHT22;1506;48.932;9.478;2023-06-26T07:47:19;32.20;99.90
2993;DHT22;1506;48.932;9.478;2023-06-26T07:49:46;32.60;99.90
2993;DHT22;1506;48.932;9.478;2023-06-26T07:52:14;33.20;99.90
2993;DHT22;1506;48.932;9.478;2023-06-26T07:54:41;33.60;99.90
2993;DHT22;1506;48.932;9.478;2023-06-26T07:57:08;33.70;99.90
2993;DHT22;1506;48.932;9.478;2023-06-26T07:59:37;33.60;99.90
2993;DHT22;1506;48.932;9.478;2023-06-26T08:02:05;33.90;99.90
2993;DHT22;1506;48.932;9.478;2023-06-26T08:04:33;34.10;99.90
2993;DHT22;1506;48.932;9.478;2023-06-26T08:07:01;34.30;99.90
2993;DHT22;1506;48.932;9.478;2023-06-26T08:09:30;34.40;99.90
2993;DHT22;1506;48.932;9.478;2023-06-26T08:11:58;34.80;99.90
2993;DHT22;1506;48.932;9.478;2023-06-26T08:14:25;34.60;99.90
2993;DHT22;1506;48.932;9.478;2023-06-26T08:16:52;34.70;99.90
2993;DHT22;1506;48.932;9.478;2023-06-26T08:19:20;34.30;99.90
2993;DHT22;1506;48.932;9.478;2023-06-26T08:21:47;34.80;99.90
2993;DHT22;1506;48.932;9.478;2023-06-26T08:24:14;34.90;99.90
2993;DHT22;1506;48.932;9.478;2023-06-26T08:26:46;34.60;99.90
2993;DHT22;1506;48.932;9.478;2023-06-26T08:29:14;34.00;99.90
2993;DHT22;1506;48.932;9.478;2023-06-26T08:31:42;34.60;99.90
2993;DHT22;1506;48.932;9.478;2023-06-26T08:34:10;35.00;99.90
2993;DHT22;1506;48.932;9.478;2023-06-26T08:36:37;34.90;99.90
2993;DHT22;1506;48.932;9.478;2023-06-26T08:39:05;35.30;99.90
2993;DHT22;1506;48.932;9.478;2023-06-26T08:41:32;35.30;99.90
2993;DHT22;1506;48.932;9.478;2023-06-26T08:43:59;35.40;99.90
2993;DHT22;1506;48.932;9.478;2023-06-26T08:46:28;35.30;99.90
2993;DHT22;1506;48.932;9.478;2023-06-26T08:48:56;35.20;99.90
2993;DHT22;1506;48.932;9.478;2023-06-26T08:51:25;35.10;99.90
2993;DHT22;1506;48.932;9.478;2023-06-26T08:53:59;35.10;99.90
2993;DHT22;1506;48.932;9.478;2023-06-26T08:56:35;34.90;99.90
2993;DHT22;1506;48.932;9.478;2023-06-26T08:59:04;34.80;99.90
2993;DHT22;1506;48.932;9.478;2023-06-26T09:01:31;35.00;99.90
2993;DHT22;1506;48.932;9.478;2023-06-26T09:03:58;35.00;99.90
2993;DHT22;1506;48.932;9.478;2023-06-26T09:06:26;34.80;99.90
2993;DHT22;1506;48.932;9.478;2023-06-26T09:08:53;35.10;99.90
2993;DHT22;1506;48.932;9.478;2023-06-26T09:11:21;34.60;99.90
2993;DHT22;1506;48.932;9.478;2023-06-26T09:13:48;34.90;99.90
2993;DHT22;1506;48.932;9.478;2023-06-26T09:16:15;34.60;99.90
2993;DHT22;1506;48.932;9.478;2023-06-26T09:18:46;34.30;99.90
2993;DHT22;1506;48.932;9.478;2023-06-26T09:21:14;34.60;99.90
2993;DHT22;1506;48.932;9.478;2023-06-26T09:23:41;35.00;99.90
2993;DHT22;1506;48.932;9.478;2023-06-26T09:26:08;34.90;99.90
2993;DHT22;1506;48.932;9.478;2023-06-26T09:28:35;35.20;99.90
2993;DHT22;1506;48.932;9.478;2023-06-26T09:31:04;35.40;99.90
2993;DHT22;1506;48.932;9.478;2023-06-26T09:33:35;35.40;99.90
2993;DHT22;1506;48.932;9.478;2023-06-26T09:36:19;35.20;99.90
2993;DHT22;1506;48.932;9.478;2023-06-26T09:38:48;35.60;99.90
2993;DHT22;1506;48.932;9.478;2023-06-26T09:41:18;36.10;99.90
2993;DHT22;1506;48.932;9.478;2023-06-26T09:43:49;36.40;99.90
2993;DHT22;1506;48.932;9.478;2023-06-26T09:48:58;36.30;99.90
2993;DHT22;1506;48.932;9.478;2023-06-26T09:51:26;36.20;99.90
2993;DHT22;1506;48.932;9.478;2023-06-26T09:53:53;36.10;99.90
2993;DHT22;1506;48.932;9.478;2023-06-26T09:56:20;36.10;99.90
2993;DHT22;1506;48.932;9.478;2023-06-26T09:58:49;36.20;99.90
2993;DHT22;1506;48.932;9.478;2023-06-26T10:01:17;35.70;99.90
2993;DHT22;1506;48.932;9.478;2023-06-26T10:03:45;35.40;99.90
2993;DHT22;1506;48.932;9.478;2023-06-26T10:06:13;35.40;99.90
2993;DHT22;1506;48.932;9.478;2023-06-26T10:08:41;36.10;99.90
2993;DHT22;1506;48.932;9.478;2023-06-26T10:11:14;36.20;99.90
2993;DHT22;1506;48.932;9.478;2023-06-26T10:13:45;35.50;99.90
2993;DHT22;1506;48.932;9.478;2023-06-26T10:16:22;36.10;99.90
2993;DHT22;1506;48.932;9.478;2023-06-26T10:19:01;36.70;99.90
2993;DHT22;1506;48.932;9.478;2023-06-26T10:21:32;36.90;99.90
2993;DHT22;1506;48.932;9.478;2023-06-26T10:24:02;37.50;99.90
2993;DHT22;1506;48.932;9.478;2023-06-26T10:26:36;37.20;99.90
2993;DHT22;1506;48.932;9.478;2023-06-26T10:29:06;37.00;99.90
2993;DHT22;1506;48.932;9.478;2023-06-26T10:31:34;36.20;99.90
2993;DHT22;1506;48.932;9.478;2023-06-26T10:34:02;35.40;99.90
2993;DHT22;1506;48.932;9.478;2023-06-26T10:36:31;34.90;99.90
2993;DHT22;1506;48.932;9.478;2023-06-26T10:39:03;34.30;99.90
2993;DHT22;1506;48.932;9.478;2023-06-26T10:41:40;34.20;99.90
2993;DHT22;1506;48.932;9.478;2023-06-26T10:44:40;33.70;99.90
2993;DHT22;1506;48.932;9.478;2023-06-26T10:47:09;33.00;99.90
2993;DHT22;1506;48.932;9.478;2023-06-26T10:49:37;32.60;99.90
2993;DHT22;1506;48.932;9.478;2023-06-26T10:52:08;32.40;99.90
2993;DHT22;1506;48.932;9.478;2023-06-26T10:54:37;32.70;99.90
2993;DHT22;1506;48.932;9.478;2023-06-26T10:57:07;33.00;99.90
2993;DHT22;1506;48.932;9.478;2023-06-26T10:59:34;33.20;99.90
2993;DHT22;1506;48.932;9.478;2023-06-26T11:02:03;33.90;99.90
2993;DHT22;1506;48.932;9.478;2023-06-26T11:10:14;35.40;99.90
2993;DHT22;1506;48.932;9.478;2023-06-26T11:12:44;35.00;99.90
2993;DHT22;1506;48.932;9.478;2023-06-26T11:15:16;35.20;99.90
2993;DHT22;1506;48.932;9.478;2023-06-26T11:17:44;35.80;99.90
2993;DHT22;1506;48.932;9.478;2023-06-26T11:20:13;36.10;99.90
2993;DHT22;1506;48.932;9.478;2023-06-26T11:22:42;36.20;99.90
2993;DHT22;1506;48.932;9.478;2023-06-26T11:25:10;36.80;99.90
2993;DHT22;1506;48.932;9.478;2023-06-26T11:27:42;36.40;99.90
2993;DHT22;1506;48.932;9.478;2023-06-26T11:30:23;36.50;99.90
2993;DHT22;1506;48.932;9.478;2023-06-26T11:32:51;36.10;99.90
2993;DHT22;1506;48.932;9.478;2023-06-26T11:35:24;35.90;99.90
2993;DHT22;1506;48.932;9.478;2023-06-26T11:37:57;36.50;99.90
2993;DHT22;1506;48.932;9.478;2023-06-26T11:40:33;36.10;99.90
2993;DHT22;1506;48.932;9.478;2023-06-26T11:43:01;36.00;99.90
2993;DHT22;1506;48.932;9.478;2023-06-26T11:45:31;36.30;99.90
2993;DHT22;1506;48.932;9.478;2023-06-26T11:48:00;36.30;99.90
2993;DHT22;1506;48.932;9.478;2023-06-26T11:50:28;35.90;99.90
2993;DHT22;1506;48.932;9.478;2023-06-26T11:52:56;35.70;99.90
2993;DHT22;1506;48.932;9.478;2023-06-26T11:55:25;35.60;99.90
2993;DHT22;1506;48.932;9.478;2023-06-26T11:57:54;35.40;99.90
2993;DHT22;1506;48.932;9.478;2023-06-26T12:00:22;35.90;99.90
2993;DHT22;1506;48.932;9.478;2023-06-26T12:02:49;35.50;99.90
2993;DHT22;1506;48.932;9.478;2023-06-26T12:05:19;35.80;99.90
2993;DHT22;1506;48.932;9.478;2023-06-26T12:07:47;35.50;99.90
2993;DHT22;1506;48.932;9.478;2023-06-26T12:10:15;35.20;99.90
2993;DHT22;1506;48.932;9.478;2023-06-26T12:12:43;34.70;99.90
2993;DHT22;1506;48.932;9.478;2023-06-26T12:15:14;34.70;99.90
2993;DHT22;1506;48.932;9.478;2023-06-26T12:17:42;35.00;99.90
2993;DHT22;1506;48.932;9.478;2023-06-26T12:20:30;35.30;99.90
2993;DHT22;1506;48.932;9.478;2023-06-26T12:22:59;35.10;99.90
2993;DHT22;1506;48.932;9.478;2023-06-26T12:25:26;34.60;99.90
2993;DHT22;1506;48.932;9.478;2023-06-26T12:27:53;34.30;99.90
2993;DHT22;1506;48.932;9.478;2023-06-26T12:30:20;33.90;99.90
2993;DHT22;1506;48.932;9.478;2023-06-26T12:32:47;33.70;99.90
2993;DHT22;1506;48.932;9.478;2023-06-26T12:35:14;33.50;99.90
2993;DHT22;1506;48.932;9.478;2023-06-26T12:37:43;33.80;99.90
2993;DHT22;1506;48.932;9.478;2023-06-26T12:40:20;33.40;99.90
2993;DHT22;1506;48.932;9.478;2023-06-26T12:42:50;33.30;99.90
2993;DHT22;1506;48.932;9.478;2023-06-26T12:45:17;33.10;99.90
2993;DHT22;1506;48.932;9.478;2023-06-26T12:47:47;33.00;99.90
2993;DHT22;1506;48.932;9.478;2023-06-26T12:50:15;33.10;99.90
2993;DHT22;1506;48.932;9.478;2023-06-26T12:52:43;33.30;99.90
2993;DHT22;1506;48.932;9.478;2023-06-26T12:55:10;33.30;99.90
2993;DHT22;1506;48.932;9.478;2023-06-26T12:57:37;33.00;99.90
2993;DHT22;1506;48.932;9.478;2023-06-26T13:00:05;32.80;99.90
2993;DHT22;1506;48.932;9.478;2023-06-26T13:02:32;32.80;99.90
2993;DHT22;1506;48.932;9.478;2023-06-26T13:04:59;32.40;99.90
2993;DHT22;1506;48.932;9.478;2023-06-26T13:07:26;32.40;99.90
2993;DHT22;1506;48.932;9.478;2023-06-26T13:09:54;32.60;99.90
2993;DHT22;1506;48.932;9.478;2023-06-26T13:12:22;32.70;99.90
2993;DHT22;1506;48.932;9.478;2023-06-26T13:14:49;32.70;99.90
2993;DHT22;1506;48.932;9.478;2023-06-26T13:17:16;32.70;99.90
2993;DHT22;1506;48.932;9.478;2023-06-26T13:19:43;32.50;99.90
2993;DHT22;1506;48.932;9.478;2023-06-26T13:22:10;32.40;99.90
2993;DHT22;1506;48.932;9.478;2023-06-26T13:24:37;32.20;99.90
2993;DHT22;1506;48.932;9.478;2023-06-26T13:27:04;32.00;99.90
2993;DHT22;1506;48.932;9.478;2023-06-26T13:29:31;31.70;99.90
2993;DHT22;1506;48.932;9.478;2023-06-26T13:31:59;31.80;99.90
2993;DHT22;1506;48.932;9.478;2023-06-26T13:34:28;31.80;99.90
2993;DHT22;1506;48.932;9.478;2023-06-26T13:36:56;31.80;99.90
2993;DHT22;1506;48.932;9.478;2023-06-26T13:39:23;31.50;99.90
2993;DHT22;1506;48.932;9.478;2023-06-26T13:41:50;31.50;99.90
2993;DHT22;1506;48.932;9.478;2023-06-26T13:44:17;31.50;99.90
2993;DHT22;1506;48.932;9.478;2023-06-26T13:47:04;31.70;99.90
2993;DHT22;1506;48.932;9.478;2023-06-26T13:49:33;31.70;99.90
2993;DHT22;1506;48.932;9.478;2023-06-26T13:52:00;31.60;99.90
2993;DHT22;1506;48.932;9.478;2023-06-26T13:54:28;31.60;99.90
2993;DHT22;1506;48.932;9.478;2023-06-26T13:56:55;31.60;99.90
2993;DHT22;1506;48.932;9.478;2023-06-26T13:59:24;31.60;99.90
2993;DHT22;1506;48.932;9.478;2023-06-26T14:01:54;31.50;99.90
2993;DHT22;1506;48.932;9.478;2023-06-26T14:04:21;31.40;99.90
2993;DHT22;1506;48.932;9.478;2023-06-26T14:06:48;31.40;99.90
2993;DHT22;1506;48.932;9.478;2023-06-26T14:09:16;31.40;99.90
2993;DHT22;1506;48.932;9.478;2023-06-26T14:11:43;31.40;99.90
2993;DHT22;1506;48.932;9.478;2023-06-26T14:14:11;31.30;99.90
2993;DHT22;1506;48.932;9.478;2023-06-26T14:16:38;31.20;99.90
2993;DHT22;1506;48.932;9.478;2023-06-26T14:19:06;31.20;99.90
2993;DHT22;1506;48.932;9.478;2023-06-26T14:21:33;31.10;99.90
2993;DHT22;1506;48.932;9.478;2023-06-26T14:24:01;31.00;99.90
2993;DHT22;1506;48.932;9.478;2023-06-26T14:26:29;31.20;99.90
2993;DHT22;1506;48.932;9.478;2023-06-26T14:28:56;31.10;99.90
2993;DHT22;1506;48.932;9.478;2023-06-26T14:31:23;30.80;99.90
2993;DHT22;1506;48.932;9.478;2023-06-26T14:33:51;30.70;99.90
2993;DHT22;1506;48.932;9.478;2023-06-26T14:36:18;30.70;99.90
2993;DHT22;1506;48.932;9.478;2023-06-26T14:38:45;30.80;99.90
2993;DHT22;1506;48.932;9.478;2023-06-26T14:41:13;30.70;99.90
2993;DHT22;1506;48.932;9.478;2023-06-26T14:43:40;30.70;99.90
2993;DHT22;1506;48.932;9.478;2023-06-26T14:46:08;30.60;99.90
2993;DHT22;1506;48.932;9.478;2023-06-26T14:48:35;30.50;99.90
2993;DHT22;1506;48.932;9.478;2023-06-26T14:51:02;30.60;99.90
2993;DHT22;1506;48.932;9.478;2023-06-26T14:53:29;30.60;99.90
2993;DHT22;1506;48.932;9.478;2023-06-26T14:55:57;30.60;99.90
2993;DHT22;1506;48.932;9.478;2023-06-26T14:58:24;30.60;99.90
2993;DHT22;1506;48.932;9.478;2023-06-26T15:00:51;30.40;99.90
2993;DHT22;1506;48.932;9.478;2023-06-26T15:03:18;30.30;99.90
2993;DHT22;1506;48.932;9.478;2023-06-26T15:05:45;30.20;99.90
2993;DHT22;1506;48.932;9.478;2023-06-26T15:08:12;30.10;99.90
2993;DHT22;1506;48.932;9.478;2023-06-26T15:10:39;30.10;99.90
2993;DHT22;1506;48.932;9.478;2023-06-26T15:13:06;30.00;99.90
2993;DHT22;1506;48.932;9.478;2023-06-26T15:15:34;30.00;99.90
2993;DHT22;1506;48.932;9.478;2023-06-26T15:18:01;30.00;99.90
2993;DHT22;1506;48.932;9.478;2023-06-26T15:20:28;29.80;99.90
2993;DHT22;1506;48.932;9.478;2023-06-26T15:22:55;29.70;99.90
2993;DHT22;1506;48.932;9.478;2023-06-26T15:25:24;29.50;99.90
2993;DHT22;1506;48.932;9.478;2023-06-26T15:27:51;29.40;99.90
2993;DHT22;1506;48.932;9.478;2023-06-26T15:30:18;29.30;99.90
2993;DHT22;1506;48.932;9.478;2023-06-26T15:32:46;29.20;99.90
2993;DHT22;1506;48.932;9.478;2023-06-26T15:35:14;29.10;99.90
2993;DHT22;1506;48.932;9.478;2023-06-26T15:37:41;29.10;99.90
2993;DHT22;1506;48.932;9.478;2023-06-26T15:40:08;29.10;99.90
2993;DHT22;1506;48.932;9.478;2023-06-26T15:42:48;29.00;99.90
2993;DHT22;1506;48.932;9.478;2023-06-26T15:45:17;29.10;99.90
2993;DHT22;1506;48.932;9.478;2023-06-26T15:47:53;29.10;99.90
2993;DHT22;1506;48.932;9.478;2023-06-26T15:50:20;28.90;99.90
2993;DHT22;1506;48.932;9.478;2023-06-26T15:52:48;28.80;99.90
2993;DHT22;1506;48.932;9.478;2023-06-26T15:55:15;28.70;99.90
2993;DHT22;1506;48.932;9.478;2023-06-26T15:57:43;28.70;99.90
2993;DHT22;1506;48.932;9.478;2023-06-26T16:00:10;28.70;99.90
2993;DHT22;1506;48.932;9.478;2023-06-26T16:02:39;28.60;99.90
2993;DHT22;1506;48.932;9.478;2023-06-26T16:05:06;28.40;99.90
2993;DHT22;1506;48.932;9.478;2023-06-26T16:07:34;28.40;99.90
2993;DHT22;1506;48.932;9.478;2023-06-26T16:10:21;28.40;99.90
2993;DHT22;1506;48.932;9.478;2023-06-26T16:12:49;28.20;99.90
2993;DHT22;1506;48.932;9.478;2023-06-26T16:15:16;28.20;99.90
2993;DHT22;1506;48.932;9.478;2023-06-26T16:17:43;28.10;99.90
2993;DHT22;1506;48.932;9.478;2023-06-26T16:20:10;28.10;99.90
2993;DHT22;1506;48.932;9.478;2023-06-26T16:22:38;28.10;99.90
2993;DHT22;1506;48.932;9.478;2023-06-26T16:25:05;28.00;99.90
2993;DHT22;1506;48.932;9.478;2023-06-26T16:27:33;28.00;99.90
2993;DHT22;1506;48.932;9.478;2023-06-26T16:30:00;28.00;99.90
2993;DHT22;1506;48.932;9.478;2023-06-26T16:32:27;27.90;99.90
2993;DHT22;1506;48.932;9.478;2023-06-26T16:37:26;27.90;99.90
2993;DHT22;1506;48.932;9.478;2023-06-26T16:39:53;27.80;99.90
2993;DHT22;1506;48.932;9.478;2023-06-26T16:42:20;27.70;99.90
2993;DHT22;1506;48.932;9.478;2023-06-26T16:44:47;27.60;99.90
2993;DHT22;1506;48.932;9.478;2023-06-26T16:47:14;27.50;99.90